createdAt,value
2019-02-09T00:00:18.963Z,992.95
2019-02-09T00:01:18.974Z,992.96
2019-02-09T00:02:18.934Z,992.90
2019-02-09T00:03:18.924Z,993.01
2019-02-09T00:04:18.919Z,992.96
2019-02-09T00:05:18.903Z,992.90
2019-02-09T00:06:18.900Z,992.88
2019-02-09T00:07:18.941Z,992.78
2019-02-09T00:08:18.861Z,992.82
2019-02-09T00:09:18.884Z,992.83
2019-02-09T00:10:18.847Z,992.82
2019-02-09T00:11:18.894Z,992.75
2019-02-09T00:12:18.920Z,992.72
2019-02-09T00:13:18.838Z,992.62
2019-02-09T00:14:18.793Z,992.66
2019-02-09T00:15:18.788Z,992.58
2019-02-09T00:16:18.776Z,992.65
2019-02-09T00:17:18.879Z,992.57
2019-02-09T00:18:18.849Z,992.59
2019-02-09T00:19:18.791Z,992.67
2019-02-09T00:20:18.782Z,992.75
2019-02-09T00:21:18.765Z,992.72
2019-02-09T00:22:18.803Z,992.88
2019-02-09T00:23:18.765Z,992.86
2019-02-09T00:24:18.719Z,992.76
2019-02-09T00:25:21.981Z,992.67
2019-02-09T00:26:18.713Z,992.77
2019-02-09T00:27:18.849Z,992.72
2019-02-09T00:28:18.693Z,992.58
2019-02-09T00:29:18.674Z,992.61
2019-02-09T00:30:18.690Z,992.68
2019-02-09T00:31:18.647Z,992.55
2019-02-09T00:32:18.667Z,992.43
2019-02-09T00:33:18.595Z,992.45
2019-02-09T00:34:18.623Z,992.59
2019-02-09T00:35:18.573Z,992.47
2019-02-09T00:36:18.561Z,992.50
2019-02-09T00:37:18.582Z,992.43
2019-02-09T00:38:18.545Z,992.36
2019-02-09T00:39:18.532Z,992.37
2019-02-09T00:40:18.525Z,992.35
2019-02-09T00:41:18.514Z,992.22
2019-02-09T00:42:18.536Z,992.36
2019-02-09T00:43:18.494Z,992.39
2019-02-09T00:44:18.474Z,992.33
2019-02-09T00:45:18.501Z,992.17
2019-02-09T00:46:18.487Z,992.22
2019-02-09T00:47:18.497Z,992.18
2019-02-09T00:48:18.431Z,992.23
2019-02-09T00:49:18.433Z,992.17
2019-02-09T00:50:18.410Z,992.34
2019-02-09T00:51:18.619Z,992.35
2019-02-09T00:52:18.431Z,992.24
2019-02-09T00:53:18.381Z,992.37
2019-02-09T00:54:18.364Z,992.33
2019-02-09T00:55:18.348Z,992.07
2019-02-09T00:56:18.372Z,992.10
2019-02-09T00:57:18.365Z,992.24
2019-02-09T00:58:18.327Z,992.12
2019-02-09T00:59:18.426Z,992.09
2019-02-09T01:00:18.299Z,992.07
2019-02-09T01:01:18.289Z,992.16
2019-02-09T01:02:18.302Z,992.14
2019-02-09T01:03:18.277Z,992.16
2019-02-09T01:04:18.257Z,992.25
2019-02-09T01:05:18.293Z,992.15
2019-02-09T01:06:18.256Z,992.03
2019-02-09T01:07:18.245Z,991.94
2019-02-09T01:08:18.220Z,991.98
2019-02-09T01:09:18.196Z,991.90
2019-02-09T01:10:18.188Z,991.88
2019-02-09T01:11:18.214Z,991.91
2019-02-09T01:12:18.228Z,991.99
2019-02-09T01:13:18.160Z,992.00
2019-02-09T01:14:18.176Z,991.97
2019-02-09T01:15:18.143Z,991.95
2019-02-09T01:16:18.118Z,991.93
2019-02-09T01:17:18.210Z,991.95
2019-02-09T01:18:18.142Z,991.91
2019-02-09T01:19:18.145Z,991.84
2019-02-09T01:20:18.170Z,991.88
2019-02-09T01:21:18.132Z,991.78
2019-02-09T01:22:18.162Z,991.70
2019-02-09T01:23:18.086Z,991.69
2019-02-09T01:24:18.066Z,991.52
2019-02-09T01:25:18.062Z,991.57
2019-02-09T01:26:18.044Z,991.52
2019-02-09T01:27:18.042Z,991.46
2019-02-09T01:28:17.994Z,991.53
2019-02-09T01:29:17.984Z,991.52
2019-02-09T01:30:17.983Z,991.77
2019-02-09T01:31:17.982Z,991.81
2019-02-09T01:32:17.949Z,991.72
2019-02-09T01:33:17.942Z,991.69
2019-02-09T01:34:17.940Z,991.76
2019-02-09T01:35:17.914Z,991.65
2019-02-09T01:36:17.942Z,991.67
2019-02-09T01:37:17.888Z,991.67
2019-02-09T01:38:17.929Z,991.73
2019-02-09T01:39:17.869Z,991.55
2019-02-09T01:40:17.859Z,991.63
2019-02-09T01:41:17.864Z,991.66
2019-02-09T01:42:17.838Z,991.66
2019-02-09T01:43:17.865Z,991.60
2019-02-09T01:44:17.814Z,991.58
2019-02-09T01:45:17.809Z,991.68
2019-02-09T01:46:17.815Z,991.65
2019-02-09T01:47:17.782Z,991.71
2019-02-09T01:48:17.800Z,991.63
2019-02-09T01:49:17.868Z,991.54
2019-02-09T01:50:17.758Z,991.62
2019-02-09T01:51:17.796Z,991.53
2019-02-09T01:52:17.729Z,991.59
2019-02-09T01:53:17.775Z,991.50
2019-02-09T01:54:18.204Z,991.61
2019-02-09T01:55:17.698Z,991.53
2019-02-09T01:56:17.687Z,991.52
2019-02-09T01:57:17.677Z,991.58
2019-02-09T01:58:17.691Z,991.60
2019-02-09T01:59:17.651Z,991.69
2019-02-09T02:00:17.650Z,991.64
2019-02-09T02:01:17.643Z,991.61
2019-02-09T02:02:17.623Z,991.62
2019-02-09T02:03:17.645Z,991.51
2019-02-09T02:04:17.607Z,991.51
2019-02-09T02:05:17.608Z,991.50
2019-02-09T02:06:17.582Z,991.53
2019-02-09T02:07:17.607Z,991.39
2019-02-09T02:08:17.576Z,991.32
2019-02-09T02:09:17.551Z,991.33
2019-02-09T02:10:17.525Z,991.11
2019-02-09T02:11:17.525Z,991.15
2019-02-09T02:12:17.507Z,991.09
2019-02-09T02:13:17.529Z,991.11
2019-02-09T02:14:17.485Z,991.20
2019-02-09T02:15:17.495Z,991.12
2019-02-09T02:16:17.518Z,991.15
2019-02-09T02:17:17.488Z,991.11
2019-02-09T02:18:17.533Z,991.13
2019-02-09T02:19:17.473Z,991.10
2019-02-09T02:20:17.452Z,991.11
2019-02-09T02:21:17.452Z,991.16
2019-02-09T02:22:17.435Z,991.13
2019-02-09T02:23:17.537Z,991.06
2019-02-09T02:24:17.454Z,991.15
2019-02-09T02:25:17.405Z,991.08
2019-02-09T02:26:17.389Z,991.12
2019-02-09T02:27:17.385Z,991.07
2019-02-09T02:28:17.371Z,991.07
2019-02-09T02:29:17.328Z,991.17
2019-02-09T02:30:22.648Z,991.21
2019-02-09T02:31:17.301Z,991.26
2019-02-09T02:32:17.309Z,991.21
2019-02-09T02:33:17.330Z,991.19
2019-02-09T02:34:17.274Z,991.19
2019-02-09T02:35:17.263Z,991.20
2019-02-09T02:36:17.246Z,991.22
2019-02-09T02:37:17.245Z,991.25
2019-02-09T02:38:17.330Z,991.24
2019-02-09T02:39:17.292Z,991.20
2019-02-09T02:40:17.209Z,991.17
2019-02-09T02:41:17.221Z,991.25
2019-02-09T02:42:17.184Z,991.19
2019-02-09T02:43:17.278Z,991.23
2019-02-09T02:44:17.182Z,991.18
2019-02-09T02:45:17.169Z,991.26
2019-02-09T02:46:17.142Z,991.32
2019-02-09T02:47:17.135Z,991.36
2019-02-09T02:48:17.159Z,991.49
2019-02-09T02:49:17.120Z,991.43
2019-02-09T02:50:17.103Z,991.49
2019-02-09T02:51:17.101Z,991.56
2019-02-09T02:52:17.078Z,991.52
2019-02-09T02:53:17.154Z,991.60
2019-02-09T02:54:17.056Z,991.71
2019-02-09T02:55:17.057Z,991.68
2019-02-09T02:56:17.030Z,991.69
2019-02-09T02:57:17.038Z,991.76
2019-02-09T02:58:17.046Z,991.80
2019-02-09T02:59:17.050Z,991.80
2019-02-09T03:00:17.028Z,991.81
2019-02-09T03:01:17.087Z,991.91
2019-02-09T03:02:16.981Z,992.05
2019-02-09T03:03:16.987Z,992.01
2019-02-09T03:04:16.951Z,991.92
2019-02-09T03:05:16.960Z,991.96
2019-02-09T03:06:16.936Z,991.93
2019-02-09T03:07:16.924Z,991.89
2019-02-09T03:08:16.909Z,991.89
2019-02-09T03:09:16.892Z,991.92
2019-02-09T03:10:16.880Z,992.09
2019-02-09T03:11:16.886Z,991.92
2019-02-09T03:12:16.870Z,991.89
2019-02-09T03:13:16.847Z,991.95
2019-02-09T03:14:16.843Z,991.90
2019-02-09T03:15:16.871Z,991.78
2019-02-09T03:16:16.815Z,991.66
2019-02-09T03:17:16.849Z,991.56
2019-02-09T03:18:16.857Z,991.39
2019-02-09T03:19:19.118Z,991.36
2019-02-09T03:20:16.842Z,991.45
2019-02-09T03:21:16.807Z,991.41
2019-02-09T03:22:16.789Z,991.52
2019-02-09T03:23:16.777Z,991.53
2019-02-09T03:24:16.779Z,991.60
2019-02-09T03:25:16.762Z,991.61
2019-02-09T03:26:16.735Z,991.63
2019-02-09T03:27:16.799Z,991.60
2019-02-09T03:28:16.701Z,991.55
2019-02-09T03:29:16.681Z,991.58
2019-02-09T03:30:16.667Z,991.61
2019-02-09T03:31:16.646Z,991.63
2019-02-09T03:32:16.636Z,991.64
2019-02-09T03:33:16.639Z,991.66
2019-02-09T03:34:16.644Z,991.65
2019-02-09T03:35:16.614Z,991.63
2019-02-09T03:36:16.589Z,991.60
2019-02-09T03:37:16.580Z,991.73
2019-02-09T03:38:16.634Z,991.75
2019-02-09T03:39:16.593Z,991.75
2019-02-09T03:40:16.575Z,991.84
2019-02-09T03:41:16.542Z,991.92
2019-02-09T03:42:16.523Z,991.82
2019-02-09T03:43:16.520Z,991.86
2019-02-09T03:44:16.543Z,991.89
2019-02-09T03:45:16.496Z,991.86
2019-02-09T03:46:16.481Z,991.90
2019-02-09T03:47:16.466Z,991.93
2019-02-09T03:48:16.466Z,991.90
2019-02-09T03:49:16.478Z,991.93
2019-02-09T03:50:16.474Z,991.95
2019-02-09T03:51:16.431Z,991.95
2019-02-09T03:52:16.419Z,991.94
2019-02-09T03:53:16.447Z,991.94
2019-02-09T03:54:16.561Z,991.96
2019-02-09T03:55:16.416Z,992.02
2019-02-09T03:56:16.387Z,992.05
2019-02-09T03:57:16.376Z,992.10
2019-02-09T03:58:16.358Z,992.14
2019-02-09T03:59:16.365Z,992.11
2019-02-09T04:00:17.687Z,992.14
2019-02-09T04:01:16.354Z,992.15
2019-02-09T04:02:16.301Z,992.17
2019-02-09T04:03:16.340Z,992.21
2019-02-09T04:04:16.313Z,992.19
2019-02-09T04:05:16.275Z,992.22
2019-02-09T04:06:16.284Z,992.18
2019-02-09T04:07:16.257Z,992.17
2019-02-09T04:08:16.275Z,992.23
2019-02-09T04:09:16.265Z,992.29
2019-02-09T04:10:16.237Z,992.23
2019-02-09T04:11:16.215Z,992.09
2019-02-09T04:12:16.205Z,992.10
2019-02-09T04:13:16.204Z,992.17
2019-02-09T04:14:16.205Z,992.20
2019-02-09T04:15:16.205Z,992.14
2019-02-09T04:16:16.168Z,992.14
2019-02-09T04:17:16.229Z,992.16
2019-02-09T04:18:16.169Z,992.17
2019-02-09T04:19:16.243Z,992.19
2019-02-09T04:20:16.154Z,992.23
2019-02-09T04:21:16.166Z,992.31
2019-02-09T04:22:16.125Z,992.31
2019-02-09T04:23:16.113Z,992.34
2019-02-09T04:24:16.183Z,992.39
2019-02-09T04:25:16.099Z,992.38
2019-02-09T04:26:16.161Z,992.42
2019-02-09T04:27:16.070Z,992.46
2019-02-09T04:28:16.046Z,992.46
2019-02-09T04:29:16.049Z,992.44
2019-02-09T04:30:16.006Z,992.45
2019-02-09T04:31:16.013Z,992.44
2019-02-09T04:32:15.976Z,992.48
2019-02-09T04:33:15.993Z,992.51
2019-02-09T04:34:16.030Z,992.47
2019-02-09T04:35:15.980Z,992.40
2019-02-09T04:36:15.949Z,992.38
2019-02-09T04:37:15.928Z,992.50
2019-02-09T04:38:15.946Z,992.51
2019-02-09T04:39:15.947Z,992.53
2019-02-09T04:40:15.895Z,992.57
2019-02-09T04:41:15.885Z,992.55
2019-02-09T04:42:15.900Z,992.58
2019-02-09T04:43:15.856Z,992.61
2019-02-09T04:44:15.889Z,992.63
2019-02-09T04:45:15.843Z,992.65
2019-02-09T04:46:15.824Z,992.65
2019-02-09T04:47:15.838Z,992.62
2019-02-09T04:48:15.815Z,992.66
2019-02-09T04:49:15.835Z,992.66
2019-02-09T04:50:15.843Z,992.66
2019-02-09T04:51:15.778Z,992.73
2019-02-09T04:52:15.762Z,992.77
2019-02-09T04:53:15.749Z,992.72
2019-02-09T04:54:15.742Z,992.73
2019-02-09T04:55:15.751Z,992.83
2019-02-09T04:56:15.732Z,992.91
2019-02-09T04:57:15.780Z,993.01
2019-02-09T04:58:15.716Z,992.94
2019-02-09T04:59:15.677Z,992.91
2019-02-09T05:00:15.712Z,992.94
2019-02-09T05:01:15.659Z,992.99
2019-02-09T05:02:15.672Z,993.01
2019-02-09T05:03:15.638Z,992.97
2019-02-09T05:04:15.635Z,993.03
2019-02-09T05:05:15.649Z,993.01
2019-02-09T05:06:15.701Z,993.04
2019-02-09T05:07:15.594Z,993.06
2019-02-09T05:08:15.781Z,993.10
2019-02-09T05:09:15.575Z,993.21
2019-02-09T05:10:15.596Z,993.22
2019-02-09T05:11:15.573Z,993.27
2019-02-09T05:12:15.553Z,993.17
2019-02-09T05:13:15.555Z,993.21
2019-02-09T05:14:15.524Z,993.14
2019-02-09T05:15:15.536Z,993.23
2019-02-09T05:16:15.722Z,993.24
2019-02-09T05:17:15.527Z,993.37
2019-02-09T05:18:15.525Z,993.35
2019-02-09T05:19:15.500Z,993.41
2019-02-09T05:20:15.556Z,993.40
2019-02-09T05:21:15.499Z,993.42
2019-02-09T05:22:15.483Z,993.42
2019-02-09T05:23:15.999Z,993.39
2019-02-09T05:24:15.449Z,993.49
2019-02-09T05:25:15.499Z,993.46
2019-02-09T05:26:15.445Z,993.41
2019-02-09T05:27:15.782Z,993.38
2019-02-09T05:28:15.367Z,993.39
2019-02-09T05:29:15.376Z,993.38
2019-02-09T05:30:15.392Z,993.39
2019-02-09T05:31:22.918Z,993.38
2019-02-09T05:32:15.321Z,993.44
2019-02-09T05:33:15.326Z,993.42
2019-02-09T05:34:15.315Z,993.40
2019-02-09T05:35:15.341Z,993.42
2019-02-09T05:36:15.303Z,993.42
2019-02-09T05:37:15.339Z,993.43
2019-02-09T05:38:15.271Z,993.39
2019-02-09T05:39:15.249Z,993.37
2019-02-09T05:40:15.309Z,993.35
2019-02-09T05:41:15.263Z,993.39
2019-02-09T05:42:15.231Z,993.36
2019-02-09T05:43:15.211Z,993.44
2019-02-09T05:44:15.238Z,993.41
2019-02-09T05:45:15.237Z,993.41
2019-02-09T05:46:15.189Z,993.48
2019-02-09T05:47:15.187Z,993.47
2019-02-09T05:48:15.156Z,993.42
2019-02-09T05:49:15.137Z,993.48
2019-02-09T05:50:15.364Z,993.41
2019-02-09T05:51:15.313Z,993.48
2019-02-09T05:52:15.114Z,993.47
2019-02-09T05:53:15.095Z,993.41
2019-02-09T05:54:15.158Z,993.60
2019-02-09T05:55:15.105Z,993.57
2019-02-09T05:56:15.067Z,993.59
2019-02-09T05:57:15.053Z,993.66
2019-02-09T05:58:15.038Z,993.64
2019-02-09T05:59:15.256Z,993.68
2019-02-09T06:00:15.050Z,993.68
2019-02-09T06:01:15.017Z,993.72
2019-02-09T06:02:15.012Z,993.75
2019-02-09T06:03:14.993Z,993.77
2019-02-09T06:04:14.975Z,993.81
2019-02-09T06:05:14.989Z,993.81
2019-02-09T06:06:14.966Z,993.83
2019-02-09T06:07:14.947Z,993.86
2019-02-09T06:08:14.938Z,993.85
2019-02-09T06:09:14.923Z,993.78
2019-02-09T06:10:14.910Z,993.83
2019-02-09T06:11:14.898Z,993.78
2019-02-09T06:12:14.905Z,993.79
2019-02-09T06:13:14.883Z,993.75
2019-02-09T06:14:14.869Z,993.82
2019-02-09T06:15:14.857Z,993.81
2019-02-09T06:16:14.855Z,993.83
2019-02-09T06:17:14.860Z,993.79
2019-02-09T06:18:14.852Z,993.89
2019-02-09T06:19:14.847Z,993.92
2019-02-09T06:20:14.843Z,993.93
2019-02-09T06:21:14.900Z,993.95
2019-02-09T06:22:14.826Z,993.94
2019-02-09T06:23:14.793Z,993.96
2019-02-09T06:24:14.826Z,993.96
2019-02-09T06:25:14.867Z,994.02
2019-02-09T06:26:14.838Z,994.03
2019-02-09T06:27:14.774Z,994.03
2019-02-09T06:28:14.719Z,994.00
2019-02-09T06:29:14.706Z,994.03
2019-02-09T06:30:14.717Z,994.05
2019-02-09T06:31:14.707Z,994.11
2019-02-09T06:32:14.664Z,994.10
2019-02-09T06:33:14.673Z,994.15
2019-02-09T06:34:14.665Z,994.08
2019-02-09T06:35:14.639Z,994.18
2019-02-09T06:36:14.656Z,994.20
2019-02-09T06:37:14.621Z,994.28
2019-02-09T06:38:14.601Z,994.27
2019-02-09T06:39:14.607Z,994.33
2019-02-09T06:40:16.673Z,994.34
2019-02-09T06:41:14.599Z,994.35
2019-02-09T06:42:14.565Z,994.34
2019-02-09T06:43:14.661Z,994.35
2019-02-09T06:44:14.540Z,994.38
2019-02-09T06:45:14.541Z,994.42
2019-02-09T06:46:14.556Z,994.39
2019-02-09T06:47:14.530Z,994.44
2019-02-09T06:48:14.494Z,994.44
2019-02-09T06:49:14.497Z,994.43
2019-02-09T06:50:14.469Z,994.48
2019-02-09T06:51:14.503Z,994.38
2019-02-09T06:52:14.448Z,994.46
2019-02-09T06:53:14.437Z,994.42
2019-02-09T06:54:14.429Z,994.43
2019-02-09T06:55:14.464Z,994.43
2019-02-09T06:56:14.430Z,994.56
2019-02-09T06:57:14.420Z,994.53
2019-02-09T06:58:14.388Z,994.51
2019-02-09T06:59:14.374Z,994.56
2019-02-09T07:00:14.362Z,994.65
2019-02-09T07:01:14.398Z,994.63
2019-02-09T07:02:14.351Z,994.65
2019-02-09T07:03:14.354Z,994.64
2019-02-09T07:04:14.309Z,994.67
2019-02-09T07:05:14.321Z,994.67
2019-02-09T07:06:14.342Z,994.72
2019-02-09T07:07:14.302Z,994.75
2019-02-09T07:08:14.270Z,994.77
2019-02-09T07:09:14.265Z,994.79
2019-02-09T07:10:14.258Z,994.75
2019-02-09T07:11:14.283Z,994.81
2019-02-09T07:12:14.257Z,994.77
2019-02-09T07:13:14.226Z,994.79
2019-02-09T07:14:14.223Z,994.84
2019-02-09T07:15:14.197Z,994.87
2019-02-09T07:16:14.230Z,994.88
2019-02-09T07:17:14.235Z,994.90
2019-02-09T07:18:14.201Z,994.88
2019-02-09T07:19:14.196Z,994.95
2019-02-09T07:20:14.173Z,994.93
2019-02-09T07:21:14.225Z,994.97
2019-02-09T07:22:14.158Z,995.03
2019-02-09T07:23:14.171Z,994.92
2019-02-09T07:24:14.119Z,994.96
2019-02-09T07:25:14.152Z,994.93
2019-02-09T07:26:14.182Z,994.95
2019-02-09T07:27:14.109Z,994.88
2019-02-09T07:28:14.053Z,994.94
2019-02-09T07:29:14.037Z,994.97
2019-02-09T07:30:14.059Z,994.99
2019-02-09T07:31:14.046Z,994.98
2019-02-09T07:32:14.021Z,995.01
2019-02-09T07:33:14.003Z,994.97
2019-02-09T07:34:13.988Z,994.98
2019-02-09T07:35:13.990Z,994.98
2019-02-09T07:36:13.981Z,994.99
2019-02-09T07:37:13.960Z,995.07
2019-02-09T07:38:13.957Z,995.09
2019-02-09T07:39:13.947Z,995.06
2019-02-09T07:40:13.976Z,995.10
2019-02-09T07:41:13.946Z,995.14
2019-02-09T07:42:13.911Z,995.13
2019-02-09T07:43:13.891Z,995.11
2019-02-09T07:44:13.884Z,995.16
2019-02-09T07:45:13.864Z,995.17
2019-02-09T07:46:13.853Z,995.20
2019-02-09T07:47:13.882Z,995.22
2019-02-09T07:48:13.849Z,995.25
2019-02-09T07:49:13.861Z,995.30
2019-02-09T07:50:13.830Z,995.34
2019-02-09T07:51:13.797Z,995.36
2019-02-09T07:52:13.815Z,995.37
2019-02-09T07:53:13.778Z,995.36
2019-02-09T07:54:13.787Z,995.41
2019-02-09T07:55:13.762Z,995.43
2019-02-09T07:56:13.749Z,995.42
2019-02-09T07:57:13.777Z,995.47
2019-02-09T07:58:13.732Z,995.44
2019-02-09T07:59:13.718Z,995.36
2019-02-09T08:00:13.722Z,995.43
2019-02-09T08:01:13.695Z,995.44
2019-02-09T08:02:13.726Z,995.58
2019-02-09T08:03:13.685Z,995.50
2019-02-09T08:04:13.672Z,995.49
2019-02-09T08:05:13.647Z,995.52
2019-02-09T08:06:13.649Z,995.55
2019-02-09T08:07:13.657Z,995.48
2019-02-09T08:08:13.626Z,995.51
2019-02-09T08:09:13.647Z,995.59
2019-02-09T08:10:13.591Z,995.59
2019-02-09T08:11:13.585Z,995.61
2019-02-09T08:12:13.603Z,995.67
2019-02-09T08:13:13.566Z,995.69
2019-02-09T08:14:13.545Z,995.73
2019-02-09T08:15:13.537Z,995.80
2019-02-09T08:16:13.535Z,995.79
2019-02-09T08:17:13.625Z,995.75
2019-02-09T08:18:13.542Z,995.82
2019-02-09T08:19:13.543Z,995.85
2019-02-09T08:20:13.521Z,995.83
2019-02-09T08:21:13.503Z,995.84
2019-02-09T08:22:13.565Z,995.84
2019-02-09T08:23:13.485Z,995.77
2019-02-09T08:24:13.471Z,995.84
2019-02-09T08:25:13.462Z,995.75
2019-02-09T08:26:13.453Z,995.78
2019-02-09T08:27:13.495Z,995.88
2019-02-09T08:28:13.406Z,995.80
2019-02-09T08:29:13.396Z,995.80
2019-02-09T08:30:13.389Z,995.79
2019-02-09T08:31:13.367Z,995.83
2019-02-09T08:32:13.391Z,995.85
2019-02-09T08:33:13.348Z,995.88
2019-02-09T08:34:13.338Z,995.86
2019-02-09T08:35:13.325Z,995.95
2019-02-09T08:36:13.325Z,995.87
2019-02-09T08:37:13.343Z,995.88
2019-02-09T08:38:13.294Z,995.91
2019-02-09T08:39:13.286Z,995.92
2019-02-09T08:40:13.272Z,995.97
2019-02-09T08:41:13.254Z,995.99
2019-02-09T08:42:13.307Z,995.98
2019-02-09T08:43:13.264Z,995.97
2019-02-09T08:44:13.255Z,995.94
2019-02-09T08:45:13.250Z,995.98
2019-02-09T08:46:13.202Z,996.00
2019-02-09T08:47:13.223Z,996.07
2019-02-09T08:48:13.189Z,996.04
2019-02-09T08:49:13.169Z,996.07
2019-02-09T08:50:13.182Z,996.11
2019-02-09T08:51:13.199Z,996.03
2019-02-09T08:52:13.237Z,996.16
2019-02-09T08:53:13.130Z,996.10
2019-02-09T08:54:13.160Z,996.12
2019-02-09T08:55:13.116Z,996.16
2019-02-09T08:56:13.106Z,996.21
2019-02-09T08:57:13.130Z,996.14
2019-02-09T08:58:13.137Z,996.11
2019-02-09T08:59:13.083Z,996.19
2019-02-09T09:00:13.065Z,996.21
2019-02-09T09:01:13.041Z,996.11
2019-02-09T09:02:20.231Z,996.14
2019-02-09T09:03:13.036Z,996.17
2019-02-09T09:04:13.013Z,996.18
2019-02-09T09:05:13.009Z,996.08
2019-02-09T09:06:12.986Z,996.15
2019-02-09T09:07:13.004Z,996.17
2019-02-09T09:08:12.983Z,996.13
2019-02-09T09:09:12.971Z,996.23
2019-02-09T09:10:12.951Z,996.22
2019-02-09T09:11:12.944Z,996.18
2019-02-09T09:12:12.926Z,996.19
2019-02-09T09:13:12.919Z,996.15
2019-02-09T09:14:12.905Z,996.23
2019-02-09T09:15:12.902Z,996.21
2019-02-09T09:16:12.881Z,996.27
2019-02-09T09:17:13.012Z,996.21
2019-02-09T09:18:12.908Z,996.25
2019-02-09T09:19:12.889Z,996.25
2019-02-09T09:20:12.878Z,996.22
2019-02-09T09:21:12.866Z,996.21
2019-02-09T09:22:12.850Z,996.25
2019-02-09T09:23:12.842Z,996.19
2019-02-09T09:24:12.835Z,996.24
2019-02-09T09:25:12.837Z,996.29
2019-02-09T09:26:12.810Z,996.28
2019-02-09T09:27:12.796Z,996.26
2019-02-09T09:28:12.773Z,996.24
2019-02-09T09:29:12.742Z,996.29
2019-02-09T09:30:12.725Z,996.32
2019-02-09T09:31:12.736Z,996.32
2019-02-09T09:32:12.756Z,996.45
2019-02-09T09:33:12.745Z,996.42
2019-02-09T09:34:12.715Z,996.41
2019-02-09T09:35:12.675Z,996.42
2019-02-09T09:36:12.660Z,996.44
2019-02-09T09:37:12.654Z,996.47
2019-02-09T09:38:12.677Z,996.53
2019-02-09T09:39:13.833Z,996.50
2019-02-09T09:40:12.709Z,996.55
2019-02-09T09:41:12.741Z,996.57
2019-02-09T09:42:12.594Z,996.67
2019-02-09T09:43:12.638Z,996.52
2019-02-09T09:44:12.591Z,996.55
2019-02-09T09:45:12.569Z,996.60
2019-02-09T09:46:12.565Z,996.61
2019-02-09T09:47:12.555Z,996.49
2019-02-09T09:48:12.575Z,996.52
2019-02-09T09:49:13.980Z,996.46
2019-02-09T09:50:12.577Z,996.44
2019-02-09T09:51:12.515Z,996.41
2019-02-09T09:52:12.489Z,996.49
2019-02-09T09:53:12.503Z,996.39
2019-02-09T09:54:12.478Z,996.44
2019-02-09T09:55:12.480Z,996.38
2019-02-09T09:56:12.454Z,996.56
2019-02-09T09:57:12.453Z,996.29
2019-02-09T09:58:12.473Z,996.58
2019-02-09T09:59:12.423Z,996.49
2019-02-09T10:00:12.406Z,996.48
2019-02-09T10:01:12.396Z,996.57
2019-02-09T10:02:12.387Z,996.55
2019-02-09T10:03:12.443Z,996.59
2019-02-09T10:04:12.369Z,996.66
2019-02-09T10:05:12.376Z,996.53
2019-02-09T10:06:12.352Z,996.66
2019-02-09T10:07:12.333Z,996.64
2019-02-09T10:08:12.405Z,996.56
2019-02-09T10:09:12.320Z,996.67
2019-02-09T10:10:12.303Z,996.70
2019-02-09T10:11:12.297Z,996.60
2019-02-09T10:12:12.280Z,996.78
2019-02-09T10:13:12.327Z,996.77
2019-02-09T10:14:12.253Z,996.71
2019-02-09T10:15:12.252Z,996.70
2019-02-09T10:16:12.236Z,996.69
2019-02-09T10:17:12.270Z,996.71
2019-02-09T10:18:12.360Z,996.58
2019-02-09T10:19:12.264Z,996.73
2019-02-09T10:20:12.284Z,996.65
2019-02-09T10:21:12.235Z,996.79
2019-02-09T10:22:12.221Z,996.76
2019-02-09T10:23:12.253Z,996.67
2019-02-09T10:24:12.180Z,996.68
2019-02-09T10:25:12.168Z,996.68
2019-02-09T10:26:12.160Z,996.71
2019-02-09T10:27:12.153Z,996.74
2019-02-09T10:28:12.141Z,996.85
2019-02-09T10:29:12.109Z,996.78
2019-02-09T10:30:12.081Z,996.81
2019-02-09T10:31:12.079Z,996.80
2019-02-09T10:32:12.064Z,996.84
2019-02-09T10:33:12.100Z,996.91
2019-02-09T10:34:12.037Z,996.82
2019-02-09T10:35:12.073Z,996.84
2019-02-09T10:36:12.025Z,996.89
2019-02-09T10:37:12.017Z,996.93
2019-02-09T10:38:13.300Z,996.97
2019-02-09T10:39:11.987Z,996.92
2019-02-09T10:40:11.994Z,996.95
2019-02-09T10:41:12.013Z,996.97
2019-02-09T10:42:11.947Z,996.66
2019-02-09T10:43:11.946Z,996.87
2019-02-09T10:44:11.941Z,996.94
2019-02-09T10:45:11.925Z,996.89
2019-02-09T10:46:11.936Z,997.01
2019-02-09T10:47:11.904Z,996.95
2019-02-09T10:48:11.893Z,996.99
2019-02-09T10:49:11.892Z,996.95
2019-02-09T10:50:11.866Z,996.92
2019-02-09T10:51:11.845Z,997.07
2019-02-09T10:52:11.856Z,997.03
2019-02-09T10:53:11.845Z,997.02
2019-02-09T10:54:11.844Z,997.04
2019-02-09T10:55:11.817Z,997.12
2019-02-09T10:56:11.792Z,997.08
2019-02-09T10:57:11.794Z,996.98
2019-02-09T10:58:11.782Z,997.05
2019-02-09T10:59:11.813Z,997.12
2019-02-09T11:00:11.766Z,997.07
2019-02-09T11:01:11.751Z,997.06
2019-02-09T11:02:11.739Z,997.05
2019-02-09T11:03:11.758Z,997.04
2019-02-09T11:04:11.750Z,997.04
2019-02-09T11:05:11.707Z,997.04
2019-02-09T11:06:11.737Z,997.00
2019-02-09T11:07:11.684Z,997.08
2019-02-09T11:08:11.667Z,997.00
2019-02-09T11:09:11.695Z,996.96
2019-02-09T11:10:11.650Z,997.05
2019-02-09T11:11:11.643Z,997.07
2019-02-09T11:12:11.624Z,997.13
2019-02-09T11:13:11.629Z,997.02
2019-02-09T11:14:11.629Z,996.97
2019-02-09T11:15:11.597Z,997.02
2019-02-09T11:16:11.598Z,997.02
2019-02-09T11:17:11.606Z,996.95
2019-02-09T11:18:11.637Z,996.92
2019-02-09T11:19:11.654Z,997.01
2019-02-09T11:20:11.646Z,997.01
2019-02-09T11:21:11.580Z,996.98
2019-02-09T11:22:11.569Z,996.99
2019-02-09T11:23:11.545Z,996.97
2019-02-09T11:24:11.604Z,996.95
2019-02-09T11:25:11.534Z,996.95
2019-02-09T11:26:11.524Z,996.99
2019-02-09T11:27:11.514Z,996.98
2019-02-09T11:28:11.460Z,997.07
2019-02-09T11:29:11.472Z,996.99
2019-02-09T11:30:11.442Z,996.91
2019-02-09T11:31:11.442Z,997.02
2019-02-09T11:32:11.415Z,997.15
2019-02-09T11:33:11.410Z,996.97
2019-02-09T11:34:11.413Z,997.02
2019-02-09T11:35:11.395Z,997.01
2019-02-09T11:36:11.360Z,997.04
2019-02-09T11:37:11.460Z,997.02
2019-02-09T11:38:11.364Z,996.99
2019-02-09T11:39:11.363Z,996.98
2019-02-09T11:40:11.339Z,996.82
2019-02-09T11:41:11.309Z,996.95
2019-02-09T11:42:11.299Z,996.92
2019-02-09T11:43:11.289Z,996.92
2019-02-09T11:44:12.316Z,996.87
2019-02-09T11:45:11.285Z,996.85
2019-02-09T11:46:11.262Z,996.81
2019-02-09T11:47:11.253Z,996.84
2019-02-09T11:48:11.704Z,996.83
2019-02-09T11:49:11.334Z,996.71
2019-02-09T11:50:11.222Z,996.79
2019-02-09T11:51:11.225Z,996.89
2019-02-09T11:52:11.192Z,996.76
2019-02-09T11:53:11.194Z,996.76
2019-02-09T11:54:11.215Z,996.94
2019-02-09T11:55:11.165Z,996.86
2019-02-09T11:56:11.151Z,996.80
2019-02-09T11:57:11.152Z,996.90
2019-02-09T11:58:11.138Z,996.88
2019-02-09T11:59:11.142Z,996.85
2019-02-09T12:00:11.425Z,996.98
2019-02-09T12:01:11.123Z,996.81
2019-02-09T12:02:11.143Z,996.70
2019-02-09T12:03:15.759Z,996.83
2019-02-09T12:04:12.534Z,996.74
2019-02-09T12:05:11.066Z,996.84
2019-02-09T12:06:11.063Z,996.76
2019-02-09T12:07:11.035Z,996.76
2019-02-09T12:08:11.023Z,996.71
2019-02-09T12:09:11.046Z,996.67
2019-02-09T12:10:11.007Z,996.69
2019-02-09T12:11:10.988Z,996.67
2019-02-09T12:12:10.979Z,996.69
2019-02-09T12:13:10.962Z,996.71
2019-02-09T12:14:11.010Z,996.67
2019-02-09T12:15:10.962Z,996.59
2019-02-09T12:16:10.950Z,996.62
2019-02-09T12:17:10.983Z,996.67
2019-02-09T12:18:10.968Z,996.70
2019-02-09T12:19:10.932Z,996.71
2019-02-09T12:20:10.945Z,996.57
2019-02-09T12:21:10.943Z,996.65
2019-02-09T12:22:10.920Z,996.59
2019-02-09T12:23:10.906Z,996.53
2019-02-09T12:24:12.076Z,996.56
2019-02-09T12:25:11.046Z,996.58
2019-02-09T12:26:10.872Z,996.62
2019-02-09T12:27:10.858Z,996.66
2019-02-09T12:28:10.820Z,996.50